Time;durP1;ratioP1;P1;durP2;ratioP2;P2;SDS_P1;SDS_P2;PMS_P1;PMS_P2;Temp;Humidity;BMP_temperature;BMP_pressure;BME280_temperature;BME280_humidity;BME280_pressure;Samples;Min_cycle;Max_cycle;Signal;HPM_P1;HPM_P2
2022/08/21 00:01:57;;;;;;;43.37;23.13;;;18.30;99.90;;;;;;4299876;28;658849;-89
2022/08/21 00:04:44;;;;;;;40.33;22.80;;;18.40;99.90;;;;;;4323159;28;658595;-89
2022/08/21 00:07:31;;;;;;;42.20;23.00;;;18.40;99.90;;;;;;4300508;28;658923;-89
2022/08/21 00:10:19;;;;;;;35.17;21.27;;;18.40;99.90;;;;;;4322798;28;659164;-89
2022/08/21 00:13:06;;;;;;;39.25;20.05;;;18.40;99.90;;;;;;4302973;28;658902;-89
2022/08/21 00:15:55;;;;;;;40.37;21.27;;;18.50;99.90;;;;;;4314511;28;658897;-89
2022/08/21 00:18:42;;;;;;;40.93;19.50;;;18.50;99.90;;;;;;4303936;28;659192;-89
2022/08/21 00:21:29;;;;;;;45.53;20.97;;;18.50;99.90;;;;;;4323755;28;659448;-90
2022/08/21 00:24:16;;;;;;;39.43;19.67;;;18.40;99.90;;;;;;4300684;28;659022;-89
2022/08/21 00:27:03;;;;;;;33.73;20.53;;;18.40;99.90;;;;;;4322300;28;659195;-90
2022/08/21 00:29:51;;;;;;;35.77;20.53;;;18.50;99.90;;;;;;4281126;28;658873;-89
2022/08/21 00:32:40;;;;;;;34.95;19.50;;;18.50;99.90;;;;;;4326146;28;660037;-89
2022/08/21 00:35:28;;;;;;;33.53;18.60;;;18.50;99.90;;;;;;4298253;28;659334;-90
2022/08/21 00:38:16;;;;;;;30.03;18.87;;;18.50;99.90;;;;;;4296965;28;658749;-89
2022/08/21 00:41:06;;;;;;;37.07;19.50;;;18.50;99.90;;;;;;4320775;28;658803;-89
2022/08/21 00:43:54;;;;;;;39.40;20.77;;;18.40;99.90;;;;;;4302290;28;659387;-89
2022/08/21 00:46:42;;;;;;;37.83;21.47;;;18.40;99.90;;;;;;4289706;28;658609;-90
2022/08/21 00:49:32;;;;;;;42.20;22.20;;;18.40;99.90;;;;;;4317749;28;658396;-89
2022/08/21 00:52:22;;;;;;;37.47;21.03;;;18.30;99.90;;;;;;4313933;28;659094;-89
2022/08/21 00:55:10;;;;;;;38.50;22.57;;;18.30;99.90;;;;;;4280339;28;658893;-90
2022/08/21 00:57:58;;;;;;;41.53;23.23;;;18.30;99.90;;;;;;4304239;28;659111;-89
2022/08/21 01:00:47;;;;;;;43.67;22.83;;;18.40;99.90;;;;;;4295778;28;658612;-89
2022/08/21 01:03:34;;;;;;;48.33;24.20;;;18.30;99.90;;;;;;4311690;28;658830;-90
2022/08/21 01:06:23;;;;;;;44.83;23.87;;;18.30;99.90;;;;;;4297286;28;658564;-89
2022/08/21 01:09:10;;;;;;;43.75;23.90;;;18.40;99.90;;;;;;4298506;28;658525;-89
2022/08/21 01:11:57;;;;;;;46.73;24.53;;;18.50;99.90;;;;;;4297455;28;658202;-89
2022/08/21 01:14:45;;;;;;;41.90;24.53;;;18.50;99.90;;;;;;4315422;28;658854;-89
2022/08/21 01:17:32;;;;;;;49.63;25.93;;;18.50;99.90;;;;;;4316523;28;659706;-88
2022/08/21 01:20:19;;;;;;;55.27;28.93;;;18.50;99.90;;;;;;4318967;28;658455;-88
2022/08/21 01:23:08;;;;;;;47.40;28.13;;;18.50;99.90;;;;;;4293509;28;658507;-89
2022/08/21 01:25:55;;;;;;;52.53;26.17;;;18.50;99.90;;;;;;4300459;28;658635;-88
2022/08/21 01:28:49;;;;;;;53.70;29.43;;;18.50;99.90;;;;;;4323855;28;658234;-90
2022/08/21 01:31:36;;;;;;;52.67;29.37;;;18.50;99.90;;;;;;4292093;28;659135;-89
2022/08/21 01:34:24;;;;;;;56.30;29.57;;;18.50;99.90;;;;;;4313797;28;658947;-90
2022/08/21 01:37:11;;;;;;;52.33;29.50;;;18.50;99.90;;;;;;4299121;28;660008;-89
2022/08/21 01:40:00;;;;;;;57.20;27.47;;;18.50;99.90;;;;;;4320525;28;660305;-89
2022/08/21 01:42:48;;;;;;;49.10;27.77;;;18.50;99.90;;;;;;4294727;28;658953;-89
2022/08/21 01:45:35;;;;;;;43.80;25.83;;;18.60;99.90;;;;;;4297406;28;658866;-90
2022/08/21 01:48:22;;;;;;;51.83;26.90;;;18.50;99.90;;;;;;4318947;28;659718;-89
2022/08/21 01:51:09;;;;;;;50.97;27.27;;;18.60;99.90;;;;;;4313202;28;658596;-89
2022/08/21 01:53:56;;;;;;;57.57;30.37;;;18.60;99.90;;;;;;4300236;28;658673;-89
2022/08/21 01:56:47;;;;;;;53.37;28.67;;;18.50;99.90;;;;;;4303417;28;659029;-89
2022/08/21 01:59:34;;;;;;;56.33;29.40;;;18.50;99.90;;;;;;4302409;28;658882;-89
2022/08/21 02:02:24;;;;;;;59.17;30.00;;;18.50;99.90;;;;;;4291029;28;659083;-89
2022/08/21 02:05:11;;;;;;;51.40;28.10;;;18.50;99.90;;;;;;4296960;28;658511;-90
2022/08/21 02:07:58;;;;;;;61.20;29.67;;;18.60;99.90;;;;;;4326730;28;658549;-91
2022/08/21 02:10:46;;;;;;;57.20;29.90;;;18.60;99.90;;;;;;4310669;28;658664;-89
2022/08/21 02:13:35;;;;;;;53.77;30.67;;;18.60;99.90;;;;;;4321193;28;658788;-90
2022/08/21 02:16:22;;;;;;;54.13;29.67;;;18.60;99.90;;;;;;4289597;28;659124;-89
2022/08/21 02:19:09;;;;;;;59.13;28.77;;;18.50;99.90;;;;;;4311920;28;658426;-90
2022/08/21 02:21:56;;;;;;;52.73;28.80;;;18.50;99.90;;;;;;4285696;28;658536;-89
2022/08/21 02:24:43;;;;;;;55.33;29.23;;;18.60;99.90;;;;;;4325835;28;659087;-90
2022/08/21 02:27:33;;;;;;;62.33;31.63;;;18.50;99.90;;;;;;4285568;28;659317;-90
2022/08/21 02:30:23;;;;;;;56.03;30.73;;;18.50;99.90;;;;;;4297113;28;658585;-89
2022/08/21 02:33:11;;;;;;;69.03;33.20;;;18.60;99.90;;;;;;4288027;28;658460;-89
2022/08/21 02:35:59;;;;;;;62.70;31.43;;;18.60;99.90;;;;;;4306829;28;659329;-91
2022/08/21 02:38:46;;;;;;;62.43;32.07;;;18.60;99.90;;;;;;4285759;28;658395;-90
2022/08/21 02:41:33;;;;;;;61.93;29.33;;;18.60;99.90;;;;;;4326651;28;658596;-90
2022/08/21 02:44:20;;;;;;;53.30;29.90;;;18.60;99.90;;;;;;4281944;28;658621;-90
2022/08/21 02:47:09;;;;;;;62.30;28.70;;;18.60;99.90;;;;;;4313038;28;659202;-90
2022/08/21 02:49:56;;;;;;;53.90;30.40;;;18.70;99.90;;;;;;4301308;28;658469;-89
2022/08/21 02:52:45;;;;;;;71.17;31.37;;;18.60;99.90;;;;;;4320208;28;658850;-89
2022/08/21 02:55:32;;;;;;;59.30;29.67;;;18.70;99.90;;;;;;4301887;28;658756;-89
2022/08/21 02:58:21;;;;;;;65.30;31.97;;;18.70;99.90;;;;;;4313817;28;658452;-89
2022/08/21 03:01:09;;;;;;;71.90;32.00;;;18.70;99.90;;;;;;4302222;28;658649;-90
2022/08/21 03:03:58;;;;;;;67.20;31.47;;;18.70;99.90;;;;;;4291653;28;658386;-90
2022/08/21 03:06:45;;;;;;;68.10;32.83;;;18.70;99.90;;;;;;4316849;28;659031;-89
2022/08/21 03:09:32;;;;;;;66.77;33.20;;;18.80;99.90;;;;;;4329277;28;659220;-89
2022/08/21 03:12:19;;;;;;;75.63;33.20;;;18.90;99.90;;;;;;4326425;28;658262;-90
2022/08/21 03:15:09;;;;;;;70.67;31.17;;;18.80;99.90;;;;;;4306303;28;658922;-90
2022/08/21 03:17:56;;;;;;;69.40;32.40;;;18.80;99.90;;;;;;4302857;28;658551;-90
2022/08/21 03:20:45;;;;;;;66.00;31.53;;;18.80;99.90;;;;;;4324477;28;659243;-89
2022/08/21 03:23:32;;;;;;;62.53;30.40;;;18.80;99.90;;;;;;4299939;28;659444;-89
2022/08/21 03:26:19;;;;;;;66.60;31.17;;;18.80;99.90;;;;;;4319391;28;658606;-89
2022/08/21 03:29:07;;;;;;;70.03;30.33;;;18.80;99.90;;;;;;4290740;28;658895;-89
2022/08/21 03:31:54;;;;;;;74.43;31.00;;;18.80;99.90;;;;;;4327690;28;658820;-90
2022/08/21 03:34:41;;;;;;;71.93;31.27;;;18.80;99.90;;;;;;4289021;28;658605;-90
2022/08/21 03:37:30;;;;;;;68.63;31.27;;;18.80;99.90;;;;;;4316713;28;659368;-90
2022/08/21 03:40:18;;;;;;;71.10;30.17;;;18.70;99.90;;;;;;4291479;28;659448;-90
2022/08/21 03:43:06;;;;;;;67.17;30.10;;;18.80;99.90;;;;;;4302888;28;658949;-89
2022/08/21 03:45:53;;;;;;;68.80;30.47;;;18.80;99.90;;;;;;4329824;28;659559;-90
2022/08/21 03:48:40;;;;;;;73.40;31.00;;;18.90;99.90;;;;;;4282517;28;658788;-88
2022/08/21 03:51:27;;;;;;;74.07;30.17;;;18.80;99.90;;;;;;4309078;28;658409;-88
2022/08/21 03:54:17;;;;;;;75.77;31.03;;;18.80;99.90;;;;;;4305343;28;659097;-88
2022/08/21 03:57:04;;;;;;;80.93;32.23;;;18.90;99.90;;;;;;4303584;28;658903;-88
2022/08/21 03:59:51;;;;;;;84.73;33.47;;;18.80;99.90;;;;;;4290523;28;658479;-91
2022/08/21 04:02:38;;;;;;;75.23;33.10;;;18.80;99.90;;;;;;4312122;28;659209;-90
2022/08/21 04:05:29;;;;;;;79.70;35.57;;;18.70;99.90;;;;;;4300961;28;658697;-90
2022/08/21 04:08:18;;;;;;;83.80;33.87;;;18.70;99.90;;;;;;4294999;28;659424;-90
2022/08/21 04:11:07;;;;;;;78.97;34.60;;;18.80;99.90;;;;;;4289355;28;658744;-89
2022/08/21 04:13:54;;;;;;;83.80;36.30;;;18.70;99.90;;;;;;4315975;28;658709;-90
2022/08/21 04:16:41;;;;;;;100.07;37.37;;;18.70;99.90;;;;;;4285442;28;658498;-89
2022/08/21 04:19:28;;;;;;;99.00;37.75;;;18.70;99.90;;;;;;4322565;28;660329;-89
2022/08/21 04:22:16;;;;;;;87.30;37.00;;;18.70;99.90;;;;;;4298646;28;658634;-89
2022/08/21 04:25:03;;;;;;;89.63;35.90;;;18.80;99.90;;;;;;4318078;28;659346;-89
2022/08/21 04:27:53;;;;;;;80.10;35.67;;;18.80;99.90;;;;;;4305652;28;658767;-89
2022/08/21 04:30:40;;;;;;;97.07;36.43;;;18.90;99.90;;;;;;4292469;28;659063;-90
2022/08/21 04:33:27;;;;;;;86.57;34.70;;;18.90;99.90;;;;;;4323141;28;659072;-91
2022/08/21 04:36:15;;;;;;;90.93;34.53;;;19.00;99.90;;;;;;4317288;28;658468;-90
2022/08/21 04:39:02;;;;;;;85.33;32.80;;;19.20;99.90;;;;;;4314309;28;658303;-91
2022/08/21 04:41:51;;;;;;;95.33;34.83;;;19.20;99.90;;;;;;4323681;28;658705;-91
2022/08/21 04:44:40;;;;;;;72.85;30.77;;;19.30;99.90;;;;;;4302442;28;659732;-90
2022/08/21 04:47:28;;;;;;;73.90;30.23;;;19.30;99.90;;;;;;4299870;28;659095;-90
2022/08/21 04:50:15;;;;;;;75.50;32.10;;;19.30;99.90;;;;;;4304777;28;658727;-89
2022/08/21 04:53:03;;;;;;;80.50;33.93;;;19.30;99.90;;;;;;4326480;28;658890;-90
2022/08/21 04:55:50;;;;;;;82.18;34.75;;;19.30;99.90;;;;;;4308283;28;658379;-89
2022/08/21 04:58:38;;;;;;;76.83;35.27;;;19.20;99.90;;;;;;4322914;28;659231;-89
2022/08/21 05:01:28;;;;;;;80.70;32.77;;;19.30;99.90;;;;;;4294490;28;658808;-89
2022/08/21 05:04:16;;;;;;;74.13;31.70;;;19.40;99.90;;;;;;4307782;28;658779;-90
2022/08/21 05:07:05;;;;;;;72.97;31.97;;;19.50;99.90;;;;;;4309665;28;659431;-91
2022/08/21 05:09:53;;;;;;;70.00;30.97;;;19.60;99.90;;;;;;4301250;28;659434;-92
2022/08/21 05:12:42;;;;;;;64.73;29.50;;;19.70;99.90;;;;;;4308466;28;659069;-91
2022/08/21 05:15:30;;;;;;;55.35;27.45;;;19.80;99.90;;;;;;4320419;28;658417;-92
2022/08/21 05:18:19;;;;;;;60.57;26.40;;;19.90;99.90;;;;;;4293975;28;659202;-92
2022/08/21 05:21:06;;;;;;;54.03;26.33;;;20.10;99.90;;;;;;4302069;28;658919;-91
2022/08/21 05:23:53;;;;;;;54.90;28.00;;;20.30;99.90;;;;;;4323093;28;658870;-92
2022/08/21 05:26:40;;;;;;;57.07;27.57;;;20.50;99.90;;;;;;4297589;28;658620;-90
2022/08/21 05:29:31;;;;;;;61.13;27.10;;;20.70;99.90;;;;;;4309325;28;659357;-92
2022/08/21 05:32:18;;;;;;;53.90;26.20;;;20.40;99.90;;;;;;4299115;28;659166;-91
2022/08/21 05:35:08;;;;;;;62.83;27.60;;;20.50;99.90;;;;;;4297008;28;659318;-90
2022/08/21 05:37:55;;;;;;;56.20;28.33;;;20.50;99.90;;;;;;4305772;28;658556;-90
2022/08/21 05:40:43;;;;;;;63.63;27.57;;;20.40;99.90;;;;;;4321605;28;659775;-90
2022/08/21 05:43:32;;;;;;;58.83;26.47;;;20.40;99.90;;;;;;4314764;28;658990;-90
2022/08/21 05:46:20;;;;;;;58.40;27.70;;;20.10;99.90;;;;;;4305637;28;658444;-91
2022/08/21 05:49:07;;;;;;;52.63;27.03;;;20.30;99.90;;;;;;4302593;28;658651;-90
2022/08/21 05:51:55;;;;;;;51.07;25.40;;;20.40;99.90;;;;;;4325081;28;658704;-89
2022/08/21 05:54:42;;;;;;;50.80;25.67;;;20.40;99.90;;;;;;4296568;28;658852;-91
2022/08/21 05:57:30;;;;;;;59.10;27.70;;;20.40;99.90;;;;;;4314535;28;659102;-90
2022/08/21 06:00:17;;;;;;;59.50;27.37;;;20.30;99.90;;;;;;4322427;28;658448;-91
2022/08/21 06:03:05;;;;;;;55.70;26.77;;;20.20;99.90;;;;;;4324350;28;658522;-91
2022/08/21 06:05:52;;;;;;;57.00;27.00;;;20.10;99.90;;;;;;4302575;28;658546;-90
2022/08/21 06:08:41;;;;;;;56.93;25.60;;;20.20;99.90;;;;;;4320499;28;658607;-91
2022/08/21 06:11:28;;;;;;;48.20;23.97;;;20.40;99.90;;;;;;4297826;28;661295;-91
2022/08/21 06:14:15;;;;;;;51.23;25.83;;;20.30;99.90;;;;;;4296594;28;659010;-91
2022/08/21 06:17:04;;;;;;;52.33;25.30;;;20.00;99.90;;;;;;4313115;28;659896;-91
2022/08/21 06:19:53;;;;;;;50.13;26.07;;;20.20;99.90;;;;;;4274965;28;658986;-91
2022/08/21 06:22:41;;;;;;;47.33;24.83;;;20.40;99.90;;;;;;4301568;28;659177;-91
2022/08/21 06:25:29;;;;;;;49.17;24.43;;;20.70;99.90;;;;;;4321500;28;659298;-91
2022/08/21 06:28:16;;;;;;;55.33;24.37;;;21.00;99.90;;;;;;4298511;28;658617;-91
2022/08/21 06:31:11;;;;;;;51.17;26.37;;;21.10;99.90;;;;;;4321860;28;659256;-91
2022/08/21 06:33:58;;;;;;;58.63;27.77;;;21.30;99.90;;;;;;4305131;28;658493;-91
2022/08/21 06:36:45;;;;;;;61.73;32.40;;;21.20;99.90;;;;;;4300105;28;659489;-89
2022/08/21 06:39:33;;;;;;;65.80;34.67;;;21.20;99.90;;;;;;4320358;28;658506;-90
2022/08/21 06:42:22;;;;;;;69.33;38.63;;;21.30;99.90;;;;;;4302117;28;658240;-89
2022/08/21 06:45:09;;;;;;;67.63;35.97;;;21.50;99.90;;;;;;4325083;28;658782;-90
2022/08/21 06:47:56;;;;;;;73.67;41.37;;;21.70;99.90;;;;;;4288607;28;658396;-90
2022/08/21 06:50:44;;;;;;;67.33;36.30;;;21.70;99.90;;;;;;4318236;29;658763;-91
2022/08/21 06:53:31;;;;;;;72.73;38.10;;;21.70;99.90;;;;;;4300084;28;658733;-90
2022/08/21 06:56:18;;;;;;;60.10;33.17;;;21.90;99.90;;;;;;4321519;28;659404;-91
2022/08/21 06:59:07;;;;;;;61.13;31.03;;;21.90;99.90;;;;;;4302928;28;658566;-89
2022/08/21 07:01:54;;;;;;;56.70;32.27;;;21.80;99.90;;;;;;4326125;28;659033;-91
2022/08/21 07:04:41;;;;;;;72.87;39.37;;;21.60;99.90;;;;;;4291951;28;658636;-90
2022/08/21 07:07:28;;;;;;;71.17;38.47;;;21.30;99.90;;;;;;4321286;28;659061;-91
2022/08/21 07:10:16;;;;;;;68.93;38.30;;;21.40;99.90;;;;;;4297002;28;659036;-91
2022/08/21 07:13:03;;;;;;;61.53;32.63;;;21.20;99.90;;;;;;4305760;28;659260;-92
2022/08/21 07:15:52;;;;;;;58.57;33.33;;;21.00;99.90;;;;;;4286486;28;659065;-93
2022/08/21 07:18:39;;;;;;;56.90;32.20;;;20.80;99.90;;;;;;4323985;28;658477;-93
2022/08/21 07:21:26;;;;;;;55.57;31.90;;;20.60;99.90;;;;;;4298498;28;658811;-91
2022/08/21 07:24:13;;;;;;;53.00;29.40;;;20.50;99.90;;;;;;4314050;28;659822;-92
2022/08/21 07:27:00;;;;;;;53.33;27.83;;;20.60;99.90;;;;;;4291304;28;658419;-91
2022/08/21 07:29:48;;;;;;;47.40;25.93;;;20.80;99.90;;;;;;4328233;28;659574;-91
2022/08/21 07:32:37;;;;;;;49.60;27.37;;;20.90;99.90;;;;;;4311953;28;658858;-91
2022/08/21 07:35:24;;;;;;;43.77;26.80;;;20.90;99.90;;;;;;4307843;28;659418;-91
2022/08/21 07:38:11;;;;;;;50.50;27.20;;;21.10;99.90;;;;;;4295914;28;658448;-91
2022/08/21 07:40:59;;;;;;;48.23;27.43;;;21.00;99.90;;;;;;4323760;28;659072;-92
2022/08/21 07:43:46;;;;;;;42.17;25.23;;;21.00;99.90;;;;;;4299006;28;658402;-90
2022/08/21 07:46:34;;;;;;;40.80;25.07;;;21.00;99.90;;;;;;4322818;28;658991;-91
2022/08/21 07:49:22;;;;;;;54.67;28.93;;;20.60;99.90;;;;;;4290783;28;658940;-90
2022/08/21 07:52:09;;;;;;;49.00;27.17;;;20.40;99.90;;;;;;4327282;28;658984;-91
2022/08/21 07:54:57;;;;;;;61.23;34.13;;;20.50;99.90;;;;;;4301963;28;658421;-90
2022/08/21 07:57:44;;;;;;;66.17;34.50;;;20.60;99.90;;;;;;4323043;28;659211;-92
2022/08/21 08:00:31;;;;;;;75.47;36.57;;;20.70;99.90;;;;;;4288354;28;658833;-93
2022/08/21 08:03:18;;;;;;;71.93;36.43;;;20.50;99.90;;;;;;4322563;28;659497;-90
2022/08/21 08:06:11;;;;;;;72.13;37.07;;;20.70;99.90;;;;;;4297572;28;658603;-91
2022/08/21 08:08:58;;;;;;;71.83;37.13;;;21.00;99.90;;;;;;4289698;28;658835;-94
2022/08/21 08:11:45;;;;;;;68.90;36.60;;;21.10;99.90;;;;;;4254315;28;658781;-93
2022/08/21 08:14:33;;;;;;;75.13;35.97;;;21.30;99.90;;;;;;4305025;28;658742;-94
2022/08/21 08:17:23;;;;;;;65.90;36.37;;;21.50;99.90;;;;;;4296244;28;658651;-90
2022/08/21 08:20:11;;;;;;;68.87;36.57;;;21.70;99.90;;;;;;4297181;28;658749;-91
2022/08/21 08:22:59;;;;;;;69.00;37.37;;;22.10;99.90;;;;;;4301376;28;659029;-93
2022/08/21 08:25:47;;;;;;;72.30;37.40;;;22.50;99.90;;;;;;4282111;28;658925;-92
2022/08/21 08:28:34;;;;;;;62.27;31.53;;;22.80;99.90;;;;;;4309480;28;658546;-94
2022/08/21 08:31:21;;;;;;;61.77;34.20;;;23.00;99.90;;;;;;4296831;28;659360;-93
2022/08/21 08:34:09;;;;;;;39.97;20.63;;;22.80;99.90;;;;;;4294118;28;658953;-91
2022/08/21 08:36:57;;;;;;;48.33;22.98;;;22.40;99.90;;;;;;4289223;28;659074;-89
2022/08/21 08:39:46;;;;;;;44.90;22.33;;;21.50;99.90;;;;;;4325553;28;658210;-88
2022/08/21 08:42:34;;;;;;;46.17;19.50;;;20.90;99.90;;;;;;4296399;28;659336;-87
2022/08/21 08:45:24;;;;;;;34.50;16.30;;;20.90;99.90;;;;;;4298123;28;659597;-88
2022/08/21 08:48:13;;;;;;;27.30;15.73;;;20.90;99.90;;;;;;4303651;28;659054;-88
2022/08/21 08:51:00;;;;;;;35.30;14.90;;;20.90;99.90;;;;;;4301475;28;658986;-87
2022/08/21 08:53:51;;;;;;;30.27;14.17;;;20.80;99.90;;;;;;4319499;28;659240;-87
2022/08/21 08:56:40;;;;;;;29.80;13.63;;;20.60;99.90;;;;;;4299686;28;659648;-87
2022/08/21 08:59:35;;;;;;;36.80;13.60;;;20.60;99.90;;;;;;4298173;28;658911;-87
2022/08/21 09:02:23;;;;;;;47.27;15.07;;;20.50;99.90;;;;;;4295449;28;658882;-86
2022/08/21 09:05:18;;;;;;;34.77;15.10;;;20.50;99.90;;;;;;4314003;28;658650;-87
2022/08/21 09:08:16;;;;;;;29.43;12.13;;;20.60;99.90;;;;;;4315015;28;659351;-87
2022/08/21 09:11:05;;;;;;;31.83;12.47;;;20.90;99.90;;;;;;4300829;28;658770;-87
2022/08/21 09:14:02;;;;;;;31.50;12.07;;;21.00;99.90;;;;;;4302514;28;659997;-87
2022/08/21 09:16:56;;;;;;;37.70;13.70;;;21.10;99.90;;;;;;4304845;28;659011;-87
2022/08/21 09:19:53;;;;;;;29.43;13.00;;;21.20;99.90;;;;;;4305510;28;658717;-88
2022/08/21 09:22:43;;;;;;;29.80;11.00;;;21.60;99.90;;;;;;4286083;28;658625;-88
2022/08/21 09:25:33;;;;;;;22.57;10.17;;;21.80;99.90;;;;;;4299084;28;658459;-87
2022/08/21 09:28:20;;;;;;;21.60;10.20;;;22.50;99.90;;;;;;4300265;28;658685;-87
2022/08/21 09:31:20;;;;;;;23.87;10.37;;;22.90;99.90;;;;;;4326502;28;658366;-87
2022/08/21 09:34:11;;;;;;;21.47;11.33;;;23.10;99.90;;;;;;4301214;28;658858;-87
2022/08/21 09:36:59;;;;;;;26.13;11.43;;;23.00;99.90;;;;;;4295574;28;658947;-87
2022/08/21 09:39:46;;;;;;;25.40;11.47;;;23.20;99.90;;;;;;4302197;28;658630;-87
2022/08/21 09:42:33;;;;;;;23.10;12.30;;;23.40;99.90;;;;;;4316396;28;659216;-88
2022/08/21 09:45:20;;;;;;;23.73;12.07;;;23.40;99.90;;;;;;4303200;28;658932;-87
2022/08/21 09:48:13;;;;;;;25.87;13.23;;;23.30;99.90;;;;;;4314828;28;659331;-88
2022/08/21 09:51:07;;;;;;;22.50;13.17;;;23.10;99.90;;;;;;4295791;28;658520;-87
2022/08/21 09:53:55;;;;;;;21.57;12.60;;;23.00;99.90;;;;;;4301359;28;659390;-88
2022/08/21 10:00:11;;;;;;;21.17;12.53;;;22.60;99.90;;;;;;4296851;28;658405;-88
2022/08/21 10:03:09;;;;;;;21.70;13.17;;;22.70;99.90;;;;;;4290509;28;658822;-88
2022/08/21 10:05:59;;;;;;;33.27;13.97;;;23.00;99.90;;;;;;4305498;28;658424;-88
2022/08/21 10:08:47;;;;;;;25.30;13.10;;;23.10;99.90;;;;;;4301319;28;658617;-88
2022/08/21 10:11:34;;;;;;;22.83;12.93;;;22.90;99.90;;;;;;4324018;28;658241;-87
2022/08/21 10:14:28;;;;;;;23.53;13.33;;;22.90;99.90;;;;;;4298411;28;658724;-88
2022/08/21 10:17:17;;;;;;;28.67;13.53;;;22.70;99.90;;;;;;4288314;28;659087;-86
2022/08/21 10:20:07;;;;;;;23.63;13.20;;;22.40;99.90;;;;;;4325221;28;658114;-87
2022/08/21 10:23:03;;;;;;;29.30;13.23;;;22.50;99.90;;;;;;4301275;28;658115;-93
2022/08/21 10:26:03;;;;;;;23.20;12.60;;;22.20;99.90;;;;;;4291578;28;659115;-92
2022/08/21 10:28:54;;;;;;;22.07;11.03;;;22.30;99.90;;;;;;4259237;28;658685;-92
2022/08/21 10:31:46;;;;;;;21.07;9.10;;;22.30;99.90;;;;;;4290751;28;658683;-92
2022/08/21 10:34:39;;;;;;;19.92;8.13;;;21.50;99.90;;;;;;4282529;28;658611;-91
2022/08/21 10:37:32;;;;;;;19.17;7.73;;;21.20;99.90;;;;;;4293771;28;657272;-90
2022/08/21 10:40:28;;;;;;;18.20;6.97;;;21.20;99.90;;;;;;4283103;28;658119;-91
2022/08/21 10:43:20;;;;;;;13.27;6.23;;;21.20;99.90;;;;;;4279850;28;657985;-89
2022/08/21 10:46:10;;;;;;;12.93;6.90;;;21.10;99.90;;;;;;4293210;28;658026;-89
2022/08/21 10:48:58;;;;;;;12.43;5.77;;;21.10;99.90;;;;;;4292499;28;657838;-90
2022/08/21 10:51:49;;;;;;;11.73;4.43;;;21.10;99.90;;;;;;4303281;28;658158;-91
2022/08/21 10:54:39;;;;;;;8.57;4.03;;;21.10;99.90;;;;;;4303975;28;657748;-90
2022/08/21 10:57:31;;;;;;;5.77;3.17;;;20.90;99.90;;;;;;4297877;28;656543;-90
2022/08/21 11:00:20;;;;;;;5.70;3.03;;;21.00;99.90;;;;;;4305766;28;657390;-90
2022/08/21 11:03:09;;;;;;;8.90;2.50;;;20.90;99.90;;;;;;4298122;28;656681;-89
2022/08/21 11:05:58;;;;;;;4.87;2.50;;;21.00;99.90;;;;;;4304814;28;656570;-90
2022/08/21 11:08:49;;;;;;;3.60;2.17;;;21.00;99.90;;;;;;4295965;28;657172;-89
2022/08/21 11:11:37;;;;;;;6.10;2.20;;;21.00;99.90;;;;;;4303939;28;656826;-90
2022/08/21 11:14:31;;;;;;;4.27;1.70;;;21.30;99.90;;;;;;4320196;28;656563;-90
2022/08/21 11:17:20;;;;;;;3.33;1.70;;;21.20;99.90;;;;;;4300202;28;657047;-90
2022/08/21 11:20:11;;;;;;;5.43;1.97;;;21.40;99.90;;;;;;4299325;28;657022;-90
2022/08/21 11:23:02;;;;;;;2.47;1.20;;;21.60;99.90;;;;;;4300993;28;656588;-90
2022/08/21 11:25:51;;;;;;;3.03;1.30;;;21.60;99.90;;;;;;4306720;28;656721;-90
2022/08/21 11:28:41;;;;;;;4.53;1.00;;;21.90;99.90;;;;;;4303294;28;657071;-89
2022/08/21 11:31:37;;;;;;;2.83;1.60;;;22.00;99.90;;;;;;4305047;28;656698;-91
2022/08/21 11:34:35;;;;;;;2.07;1.10;;;22.30;99.90;;;;;;4319219;28;657219;-89
2022/08/21 11:37:24;;;;;;;2.53;1.07;;;22.30;99.90;;;;;;4300043;28;656451;-91
2022/08/21 11:40:13;;;;;;;1.90;1.00;;;22.60;99.90;;;;;;4305412;28;656655;-90
2022/08/21 11:43:03;;;;;;;1.90;1.00;;;22.50;99.90;;;;;;4305213;28;657126;-88
2022/08/21 11:45:51;;;;;;;4.27;1.27;;;22.90;99.90;;;;;;4297637;28;656921;-90
2022/08/21 11:48:44;;;;;;;4.87;1.20;;;23.60;99.90;;;;;;4323317;28;657718;-91
2022/08/21 11:51:34;;;;;;;3.77;1.20;;;23.80;99.90;;;;;;4281195;28;656948;-92
2022/08/21 11:54:25;;;;;;;1.67;0.80;;;23.60;99.90;;;;;;4261836;28;657390;-91
2022/08/21 11:57:31;;;;;;;3.10;1.13;;;24.50;99.90;;;;;;4271752;28;657700;-94
2022/08/21 12:00:21;;;;;;;2.23;0.87;;;24.00;99.90;;;;;;4275388;28;657021;-93
2022/08/21 12:03:12;;;;;;;2.43;1.10;;;24.40;99.90;;;;;;4253677;28;656849;-96
2022/08/21 12:09:36;;;;;;;1.73;0.82;;;24.00;99.90;;;;;;4294708;28;656777;-94
2022/08/21 12:12:29;;;;;;;1.98;1.42;;;24.80;99.90;;;;;;4305409;28;656746;-95
2022/08/21 12:15:30;;;;;;;3.42;1.17;;;24.30;99.90;;;;;;4251175;28;656394;-95
2022/08/21 12:18:31;;;;;;;2.13;1.23;;;25.20;99.90;;;;;;4182774;29;656728;-94
2022/08/21 12:21:25;;;;;;;2.87;1.10;;;25.60;99.90;;;;;;4224716;28;656936;-94
2022/08/21 12:24:38;;;;;;;2.67;1.15;;;26.40;99.90;;;;;;4197894;28;656614;-94
2022/08/21 12:27:31;;;;;;;2.17;1.48;;;25.80;99.90;;;;;;4253731;28;656666;-94
2022/08/21 12:30:38;;;;;;;3.05;1.40;;;24.70;99.90;;;;;;4246923;28;658419;-94
2022/08/21 12:33:33;;;;;;;3.27;1.50;;;23.80;99.90;;;;;;4253519;28;656896;-95
2022/08/21 12:36:25;;;;;;;1.80;1.13;;;24.20;99.90;;;;;;4231009;29;656824;-94
2022/08/21 12:39:19;;;;;;;1.58;1.10;;;23.60;99.90;;;;;;4247619;28;656528;-94
2022/08/21 12:42:23;;;;;;;3.05;1.40;;;23.60;99.90;;;;;;4242491;28;656595;-95
2022/08/21 12:45:20;;;;;;;4.15;1.23;;;23.50;99.90;;;;;;4263700;28;656502;-93
2022/08/21 12:48:12;;;;;;;3.80;1.20;;;23.60;99.90;;;;;;4226884;28;656944;-92
2022/08/21 12:51:09;;;;;;;3.07;1.23;;;23.10;99.90;;;;;;4268132;28;656921;-94
2022/08/21 12:53:58;;;;;;;6.40;1.10;;;23.40;99.90;;;;;;4246200;28;656555;-94
2022/08/21 12:56:58;;;;;;;2.03;1.17;;;23.10;99.90;;;;;;4240980;28;656974;-94
2022/08/21 12:59:45;;;;;;;3.53;1.10;;;23.00;1.00;;;;;;4192353;29;657150;-94
2022/08/21 13:02:35;;;;;;;2.30;1.33;;;23.10;1.00;;;;;;4268568;28;655578;-93
2022/08/21 13:05:30;;;;;;;2.47;1.50;;;23.30;1.00;;;;;;4264320;28;656098;-95
2022/08/21 13:08:17;;;;;;;1.33;1.23;;;23.00;1.00;;;;;;4227464;29;656087;-93
2022/08/21 13:11:09;;;;;;;4.47;1.50;;;22.70;1.00;;;;;;4291396;28;656026;-92
2022/08/21 13:13:56;;;;;;;2.30;1.40;;;23.30;1.00;;;;;;4277939;28;655664;-92
2022/08/21 13:16:44;;;;;;;1.20;1.10;;;23.50;1.00;;;;;;4300984;28;655628;-92
2022/08/21 13:19:34;;;;;;;3.37;1.37;;;23.10;1.00;;;;;;4266054;28;655376;-95
2022/08/21 13:22:27;;;;;;;3.17;1.70;;;22.70;1.00;;;;;;4260001;29;655876;-94
2022/08/21 13:25:19;;;;;;;3.13;1.50;;;22.80;1.00;;;;;;4295890;28;655531;-91
2022/08/21 13:28:14;;;;;;;3.27;1.43;;;22.90;1.00;;;;;;4208917;29;655821;-92
2022/08/21 13:31:08;;;;;;;1.60;1.30;;;22.70;99.90;;;;;;4256613;28;655465;-94
2022/08/21 13:33:58;;;;;;;1.90;1.50;;;22.10;1.00;;;;;;4243666;28;656267;-95
2022/08/21 13:36:46;;;;;;;4.80;1.43;;;22.00;1.00;;;;;;4276640;28;655635;-95
2022/08/21 13:39:38;;;;;;;10.27;1.50;;;21.80;99.90;;;;;;4297679;28;656544;-95
2022/08/21 13:42:28;;;;;;;1.83;1.33;;;21.70;99.90;;;;;;4268023;28;657962;-94
2022/08/21 13:45:23;;;;;;;1.20;1.10;;;21.50;99.90;;;;;;4267584;28;658329;-94
2022/08/21 13:48:36;;;;;;;3.37;1.67;;;21.30;1.00;;;;;;4248698;28;656208;-96
2022/08/21 13:51:35;;;;;;;2.50;1.47;;;20.90;99.90;;;;;;4181013;28;656019;-95
2022/08/21 13:54:43;;;;;;;1.80;1.30;;;20.50;99.90;;;;;;4225300;29;657433;-95
2022/08/21 13:57:35;;;;;;;2.57;1.60;;;20.30;1.00;;;;;;4296007;28;656361;-94
2022/08/21 14:00:41;;;;;;;2.17;1.63;;;20.40;1.00;;;;;;4236057;28;655710;-94
2022/08/21 14:03:49;;;;;;;;;;;;;;;;;;;;;
2022/08/21 14:06:37;;;;;;;4.20;3.00;;;20.50;99.90;;;;;;4296514;28;656744;-93
2022/08/21 14:09:27;;;;;;;7.77;3.03;;;20.40;99.90;;;;;;4279804;28;655777;-93
2022/08/21 14:12:18;;;;;;;2.67;2.00;;;20.60;99.90;;;;;;4214476;28;656299;-94
2022/08/21 14:15:14;;;;;;;2.10;2.00;;;20.60;99.90;;;;;;4258113;28;656988;-95
2022/08/21 14:18:10;;;;;;;2.80;2.40;;;20.50;99.90;;;;;;4182797;28;657586;-94
2022/08/21 14:21:09;;;;;;;4.90;2.47;;;20.10;99.90;;;;;;4219805;28;656437;-94
2022/08/21 14:24:09;;;;;;;3.73;2.63;;;20.20;99.90;;;;;;4211037;29;656780;-94